sensor_id;sensor_type;location;lat;lon;timestamp;P1;durP1;ratioP1;P2;durP2;ratioP2
67528;SDS011;54366;51.980;5.856;2024-02-28T00:02:03;24.15;;;17.38;;
67528;SDS011;54366;51.980;5.856;2024-02-28T00:04:29;26.67;;;19.10;;
67528;SDS011;54366;51.980;5.856;2024-02-28T00:06:55;25.65;;;18.33;;
67528;SDS011;54366;51.980;5.856;2024-02-28T00:09:22;26.33;;;17.77;;
67528;SDS011;54366;51.980;5.856;2024-02-28T00:11:48;29.20;;;20.50;;
67528;SDS011;54366;51.980;5.856;2024-02-28T00:14:14;27.67;;;19.52;;
67528;SDS011;54366;51.980;5.856;2024-02-28T00:16:44;24.80;;;18.58;;
67528;SDS011;54366;51.980;5.856;2024-02-28T00:19:12;22.02;;;15.35;;
67528;SDS011;54366;51.980;5.856;2024-02-28T00:21:38;24.92;;;17.52;;
67528;SDS011;54366;51.980;5.856;2024-02-28T00:24:06;29.45;;;20.48;;
67528;SDS011;54366;51.980;5.856;2024-02-28T00:26:33;28.25;;;19.92;;
67528;SDS011;54366;51.980;5.856;2024-02-28T00:28:59;28.75;;;20.05;;
67528;SDS011;54366;51.980;5.856;2024-02-28T00:31:25;27.38;;;19.77;;
67528;SDS011;54366;51.980;5.856;2024-02-28T00:33:52;27.83;;;19.83;;
67528;SDS011;54366;51.980;5.856;2024-02-28T00:36:18;27.42;;;19.38;;
67528;SDS011;54366;51.980;5.856;2024-02-28T00:38:44;28.80;;;20.13;;
67528;SDS011;54366;51.980;5.856;2024-02-28T00:41:11;31.27;;;21.23;;
67528;SDS011;54366;51.980;5.856;2024-02-28T00:43:37;30.35;;;20.17;;
67528;SDS011;54366;51.980;5.856;2024-02-28T00:46:03;30.83;;;21.35;;
67528;SDS011;54366;51.980;5.856;2024-02-28T00:48:30;29.58;;;20.77;;
67528;SDS011;54366;51.980;5.856;2024-02-28T00:50:56;27.35;;;19.45;;
67528;SDS011;54366;51.980;5.856;2024-02-28T00:53:22;30.98;;;21.17;;
67528;SDS011;54366;51.980;5.856;2024-02-28T00:55:48;29.55;;;20.27;;
67528;SDS011;54366;51.980;5.856;2024-02-28T00:58:17;30.25;;;20.48;;
67528;SDS011;54366;51.980;5.856;2024-02-28T01:00:43;29.95;;;20.48;;
67528;SDS011;54366;51.980;5.856;2024-02-28T01:03:09;29.90;;;20.10;;
67528;SDS011;54366;51.980;5.856;2024-02-28T01:05:39;29.48;;;20.23;;
67528;SDS011;54366;51.980;5.856;2024-02-28T01:08:06;29.75;;;20.23;;
67528;SDS011;54366;51.980;5.856;2024-02-28T01:10:33;30.23;;;21.42;;
67528;SDS011;54366;51.980;5.856;2024-02-28T01:12:59;32.97;;;21.75;;
67528;SDS011;54366;51.980;5.856;2024-02-28T01:15:26;31.15;;;20.75;;
67528;SDS011;54366;51.980;5.856;2024-02-28T01:17:52;32.40;;;21.42;;
67528;SDS011;54366;51.980;5.856;2024-02-28T01:20:19;31.00;;;19.38;;
67528;SDS011;54366;51.980;5.856;2024-02-28T01:22:45;29.13;;;20.35;;
67528;SDS011;54366;51.980;5.856;2024-02-28T01:25:11;31.50;;;21.02;;
67528;SDS011;54366;51.980;5.856;2024-02-28T01:27:38;29.45;;;19.85;;
67528;SDS011;54366;51.980;5.856;2024-02-28T01:30:04;27.52;;;19.13;;
67528;SDS011;54366;51.980;5.856;2024-02-28T01:32:31;27.58;;;18.85;;
67528;SDS011;54366;51.980;5.856;2024-02-28T01:34:57;32.40;;;21.65;;
67528;SDS011;54366;51.980;5.856;2024-02-28T01:37:24;28.02;;;20.38;;
67528;SDS011;54366;51.980;5.856;2024-02-28T01:39:50;29.60;;;20.67;;
67528;SDS011;54366;51.980;5.856;2024-02-28T01:42:16;28.50;;;19.40;;
67528;SDS011;54366;51.980;5.856;2024-02-28T01:44:44;27.63;;;19.48;;
67528;SDS011;54366;51.980;5.856;2024-02-28T01:47:14;29.27;;;19.60;;
67528;SDS011;54366;51.980;5.856;2024-02-28T01:49:41;29.23;;;20.58;;
67528;SDS011;54366;51.980;5.856;2024-02-28T01:52:08;29.90;;;21.05;;
67528;SDS011;54366;51.980;5.856;2024-02-28T01:54:36;30.60;;;21.67;;
67528;SDS011;54366;51.980;5.856;2024-02-28T01:57:02;26.42;;;19.15;;
67528;SDS011;54366;51.980;5.856;2024-02-28T01:59:29;27.42;;;19.52;;
67528;SDS011;54366;51.980;5.856;2024-02-28T02:01:56;27.63;;;19.92;;
67528;SDS011;54366;51.980;5.856;2024-02-28T02:04:23;25.60;;;18.65;;
67528;SDS011;54366;51.980;5.856;2024-02-28T02:06:49;25.48;;;18.63;;
67528;SDS011;54366;51.980;5.856;2024-02-28T02:09:18;23.50;;;17.80;;
67528;SDS011;54366;51.980;5.856;2024-02-28T02:11:44;26.20;;;20.05;;
67528;SDS011;54366;51.980;5.856;2024-02-28T02:14:11;22.67;;;18.25;;
67528;SDS011;54366;51.980;5.856;2024-02-28T02:16:38;25.10;;;18.83;;
67528;SDS011;54366;51.980;5.856;2024-02-28T02:19:05;24.42;;;17.90;;
67528;SDS011;54366;51.980;5.856;2024-02-28T02:21:49;22.60;;;17.10;;
67528;SDS011;54366;51.980;5.856;2024-02-28T02:26:44;21.13;;;17.00;;
67528;SDS011;54366;51.980;5.856;2024-02-28T02:29:12;22.98;;;17.85;;
67528;SDS011;54366;51.980;5.856;2024-02-28T02:31:38;21.00;;;16.27;;
67528;SDS011;54366;51.980;5.856;2024-02-28T02:34:06;23.80;;;18.50;;
67528;SDS011;54366;51.980;5.856;2024-02-28T02:36:33;23.42;;;17.77;;
67528;SDS011;54366;51.980;5.856;2024-02-28T02:38:59;22.48;;;17.08;;
67528;SDS011;54366;51.980;5.856;2024-02-28T02:41:25;23.10;;;17.20;;
67528;SDS011;54366;51.980;5.856;2024-02-28T02:43:51;22.73;;;17.38;;
67528;SDS011;54366;51.980;5.856;2024-02-28T02:46:18;22.30;;;17.60;;
67528;SDS011;54366;51.980;5.856;2024-02-28T02:48:44;21.17;;;16.63;;
67528;SDS011;54366;51.980;5.856;2024-02-28T02:51:11;21.45;;;17.23;;
67528;SDS011;54366;51.980;5.856;2024-02-28T02:53:37;19.67;;;16.38;;
67528;SDS011;54366;51.980;5.856;2024-02-28T02:56:03;22.95;;;17.98;;
67528;SDS011;54366;51.980;5.856;2024-02-28T02:58:30;21.92;;;17.70;;
67528;SDS011;54366;51.980;5.856;2024-02-28T03:00:56;22.38;;;17.58;;
67528;SDS011;54366;51.980;5.856;2024-02-28T03:03:23;21.77;;;16.45;;
67528;SDS011;54366;51.980;5.856;2024-02-28T03:05:49;20.88;;;16.25;;
67528;SDS011;54366;51.980;5.856;2024-02-28T03:08:15;21.48;;;16.75;;
67528;SDS011;54366;51.980;5.856;2024-02-28T03:10:41;20.45;;;15.32;;
67528;SDS011;54366;51.980;5.856;2024-02-28T03:13:08;17.90;;;14.88;;
67528;SDS011;54366;51.980;5.856;2024-02-28T03:15:35;20.48;;;16.60;;
67528;SDS011;54366;51.980;5.856;2024-02-28T03:18:01;22.65;;;17.33;;
67528;SDS011;54366;51.980;5.856;2024-02-28T03:20:27;22.45;;;17.60;;
67528;SDS011;54366;51.980;5.856;2024-02-28T03:22:54;20.40;;;16.35;;
67528;SDS011;54366;51.980;5.856;2024-02-28T03:25:20;20.02;;;16.13;;
67528;SDS011;54366;51.980;5.856;2024-02-28T03:27:46;21.98;;;17.33;;
67528;SDS011;54366;51.980;5.856;2024-02-28T03:30:13;22.33;;;17.67;;
67528;SDS011;54366;51.980;5.856;2024-02-28T03:32:39;22.77;;;17.58;;
67528;SDS011;54366;51.980;5.856;2024-02-28T03:35:06;21.05;;;16.90;;
67528;SDS011;54366;51.980;5.856;2024-02-28T03:37:34;18.90;;;14.60;;
67528;SDS011;54366;51.980;5.856;2024-02-28T03:40:00;21.38;;;17.00;;
67528;SDS011;54366;51.980;5.856;2024-02-28T03:42:27;22.00;;;17.05;;
67528;SDS011;54366;51.980;5.856;2024-02-28T03:44:53;23.48;;;17.63;;
67528;SDS011;54366;51.980;5.856;2024-02-28T03:47:20;23.05;;;17.63;;
67528;SDS011;54366;51.980;5.856;2024-02-28T03:49:46;21.42;;;16.95;;
67528;SDS011;54366;51.980;5.856;2024-02-28T03:52:12;23.15;;;17.85;;
67528;SDS011;54366;51.980;5.856;2024-02-28T03:54:41;25.67;;;19.30;;
67528;SDS011;54366;51.980;5.856;2024-02-28T03:57:09;23.05;;;17.17;;
67528;SDS011;54366;51.980;5.856;2024-02-28T03:59:35;23.98;;;18.02;;
67528;SDS011;54366;51.980;5.856;2024-02-28T04:02:02;22.02;;;17.52;;
67528;SDS011;54366;51.980;5.856;2024-02-28T04:04:28;19.52;;;15.95;;
67528;SDS011;54366;51.980;5.856;2024-02-28T04:06:54;20.20;;;15.25;;
67528;SDS011;54366;51.980;5.856;2024-02-28T04:09:21;22.75;;;17.98;;
67528;SDS011;54366;51.980;5.856;2024-02-28T04:11:47;23.30;;;18.08;;
67528;SDS011;54366;51.980;5.856;2024-02-28T04:14:14;20.98;;;16.48;;
67528;SDS011;54366;51.980;5.856;2024-02-28T04:16:43;22.13;;;16.35;;
67528;SDS011;54366;51.980;5.856;2024-02-28T04:19:10;17.75;;;14.05;;
67528;SDS011;54366;51.980;5.856;2024-02-28T04:21:37;20.42;;;16.02;;
67528;SDS011;54366;51.980;5.856;2024-02-28T04:24:04;21.17;;;16.30;;
67528;SDS011;54366;51.980;5.856;2024-02-28T04:26:31;22.33;;;17.02;;
67528;SDS011;54366;51.980;5.856;2024-02-28T04:28:58;24.02;;;18.67;;
67528;SDS011;54366;51.980;5.856;2024-02-28T04:31:24;23.05;;;17.55;;
67528;SDS011;54366;51.980;5.856;2024-02-28T04:33:50;22.48;;;17.08;;
67528;SDS011;54366;51.980;5.856;2024-02-28T04:36:17;22.65;;;17.58;;
67528;SDS011;54366;51.980;5.856;2024-02-28T04:38:43;20.50;;;15.88;;
67528;SDS011;54366;51.980;5.856;2024-02-28T04:41:09;19.58;;;15.43;;
67528;SDS011;54366;51.980;5.856;2024-02-28T04:43:36;19.48;;;15.88;;
67528;SDS011;54366;51.980;5.856;2024-02-28T04:46:02;20.27;;;16.52;;
67528;SDS011;54366;51.980;5.856;2024-02-28T04:48:29;22.77;;;16.90;;
67528;SDS011;54366;51.980;5.856;2024-02-28T04:50:55;21.30;;;16.23;;
67528;SDS011;54366;51.980;5.856;2024-02-28T04:53:21;21.60;;;16.67;;
67528;SDS011;54366;51.980;5.856;2024-02-28T04:55:47;19.88;;;15.85;;
67528;SDS011;54366;51.980;5.856;2024-02-28T04:58:14;20.83;;;16.77;;
67528;SDS011;54366;51.980;5.856;2024-02-28T05:00:40;18.70;;;15.45;;
67528;SDS011;54366;51.980;5.856;2024-02-28T05:03:06;19.13;;;15.18;;
67528;SDS011;54366;51.980;5.856;2024-02-28T05:05:33;17.98;;;13.80;;
67528;SDS011;54366;51.980;5.856;2024-02-28T05:07:59;17.65;;;14.50;;
67528;SDS011;54366;51.980;5.856;2024-02-28T05:10:25;18.63;;;16.10;;
67528;SDS011;54366;51.980;5.856;2024-02-28T05:12:52;20.27;;;17.00;;
67528;SDS011;54366;51.980;5.856;2024-02-28T05:15:18;18.35;;;15.05;;
67528;SDS011;54366;51.980;5.856;2024-02-28T05:17:45;20.88;;;16.73;;
67528;SDS011;54366;51.980;5.856;2024-02-28T05:20:11;19.33;;;16.55;;
67528;SDS011;54366;51.980;5.856;2024-02-28T05:22:37;20.27;;;16.58;;
67528;SDS011;54366;51.980;5.856;2024-02-28T05:25:06;19.98;;;16.80;;
67528;SDS011;54366;51.980;5.856;2024-02-28T05:27:32;19.98;;;16.08;;
67528;SDS011;54366;51.980;5.856;2024-02-28T05:29:59;20.50;;;17.25;;
67528;SDS011;54366;51.980;5.856;2024-02-28T05:32:26;21.38;;;17.20;;
67528;SDS011;54366;51.980;5.856;2024-02-28T05:34:52;19.17;;;16.20;;
67528;SDS011;54366;51.980;5.856;2024-02-28T05:37:19;19.42;;;15.77;;
67528;SDS011;54366;51.980;5.856;2024-02-28T05:39:45;19.00;;;15.30;;
67528;SDS011;54366;51.980;5.856;2024-02-28T05:42:11;18.63;;;14.63;;
67528;SDS011;54366;51.980;5.856;2024-02-28T05:44:38;19.60;;;15.57;;
67528;SDS011;54366;51.980;5.856;2024-02-28T05:47:04;19.52;;;15.65;;
67528;SDS011;54366;51.980;5.856;2024-02-28T05:49:30;17.90;;;14.85;;
67528;SDS011;54366;51.980;5.856;2024-02-28T05:51:57;18.58;;;15.57;;
67528;SDS011;54366;51.980;5.856;2024-02-28T05:54:23;19.63;;;15.45;;
67528;SDS011;54366;51.980;5.856;2024-02-28T05:56:49;19.90;;;15.55;;
67528;SDS011;54366;51.980;5.856;2024-02-28T05:59:16;18.38;;;15.10;;
67528;SDS011;54366;51.980;5.856;2024-02-28T06:01:42;18.73;;;15.77;;
67528;SDS011;54366;51.980;5.856;2024-02-28T06:04:09;18.88;;;15.30;;
67528;SDS011;54366;51.980;5.856;2024-02-28T06:06:36;19.33;;;14.70;;
67528;SDS011;54366;51.980;5.856;2024-02-28T06:09:02;18.42;;;15.32;;
67528;SDS011;54366;51.980;5.856;2024-02-28T06:11:28;19.73;;;16.33;;
67528;SDS011;54366;51.980;5.856;2024-02-28T06:13:55;18.25;;;15.07;;
67528;SDS011;54366;51.980;5.856;2024-02-28T06:16:21;17.48;;;15.02;;
67528;SDS011;54366;51.980;5.856;2024-02-28T06:18:47;16.83;;;15.02;;
67528;SDS011;54366;51.980;5.856;2024-02-28T06:21:13;18.63;;;15.98;;
67528;SDS011;54366;51.980;5.856;2024-02-28T06:23:40;18.92;;;15.35;;
67528;SDS011;54366;51.980;5.856;2024-02-28T06:26:06;18.85;;;15.38;;
67528;SDS011;54366;51.980;5.856;2024-02-28T06:28:40;18.80;;;15.52;;
67528;SDS011;54366;51.980;5.856;2024-02-28T06:31:15;18.42;;;15.75;;
67528;SDS011;54366;51.980;5.856;2024-02-28T06:33:42;18.35;;;15.65;;
67528;SDS011;54366;51.980;5.856;2024-02-28T06:36:09;19.30;;;15.32;;
67528;SDS011;54366;51.980;5.856;2024-02-28T06:38:35;19.38;;;15.55;;
67528;SDS011;54366;51.980;5.856;2024-02-28T06:41:05;16.83;;;14.50;;
67528;SDS011;54366;51.980;5.856;2024-02-28T06:43:34;18.60;;;15.40;;
67528;SDS011;54366;51.980;5.856;2024-02-28T06:46:01;19.35;;;16.38;;
67528;SDS011;54366;51.980;5.856;2024-02-28T06:48:28;16.08;;;14.20;;
67528;SDS011;54366;51.980;5.856;2024-02-28T06:50:55;14.38;;;12.88;;
67528;SDS011;54366;51.980;5.856;2024-02-28T06:53:21;14.77;;;13.18;;
67528;SDS011;54366;51.980;5.856;2024-02-28T06:55:47;17.27;;;14.50;;
67528;SDS011;54366;51.980;5.856;2024-02-28T06:58:14;16.30;;;13.68;;
67528;SDS011;54366;51.980;5.856;2024-02-28T07:00:41;15.25;;;13.25;;
67528;SDS011;54366;51.980;5.856;2024-02-28T07:03:07;15.98;;;13.90;;
67528;SDS011;54366;51.980;5.856;2024-02-28T07:05:33;15.68;;;13.40;;
67528;SDS011;54366;51.980;5.856;2024-02-28T07:08:00;15.73;;;13.60;;
67528;SDS011;54366;51.980;5.856;2024-02-28T07:10:26;15.07;;;12.95;;
67528;SDS011;54366;51.980;5.856;2024-02-28T07:12:52;16.17;;;13.77;;
67528;SDS011;54366;51.980;5.856;2024-02-28T07:15:19;16.35;;;14.02;;
67528;SDS011;54366;51.980;5.856;2024-02-28T07:17:47;17.55;;;14.68;;
67528;SDS011;54366;51.980;5.856;2024-02-28T07:20:13;16.67;;;14.38;;
67528;SDS011;54366;51.980;5.856;2024-02-28T07:22:42;18.20;;;15.55;;
67528;SDS011;54366;51.980;5.856;2024-02-28T07:25:08;18.08;;;14.75;;
67528;SDS011;54366;51.980;5.856;2024-02-28T07:27:35;16.77;;;14.98;;
67528;SDS011;54366;51.980;5.856;2024-02-28T07:30:01;16.85;;;14.25;;
67528;SDS011;54366;51.980;5.856;2024-02-28T07:32:32;17.23;;;14.90;;
67528;SDS011;54366;51.980;5.856;2024-02-28T07:35:00;18.40;;;15.32;;
67528;SDS011;54366;51.980;5.856;2024-02-28T07:37:27;19.67;;;15.55;;
67528;SDS011;54366;51.980;5.856;2024-02-28T07:39:54;17.42;;;15.32;;
67528;SDS011;54366;51.980;5.856;2024-02-28T07:42:20;19.45;;;16.35;;
67528;SDS011;54366;51.980;5.856;2024-02-28T07:44:46;19.27;;;16.40;;
67528;SDS011;54366;51.980;5.856;2024-02-28T07:47:13;18.42;;;15.93;;
67528;SDS011;54366;51.980;5.856;2024-02-28T07:49:40;17.95;;;15.25;;
67528;SDS011;54366;51.980;5.856;2024-02-28T07:52:07;18.13;;;16.05;;
67528;SDS011;54366;51.980;5.856;2024-02-28T07:54:33;17.77;;;14.90;;
67528;SDS011;54366;51.980;5.856;2024-02-28T07:56:59;17.73;;;15.65;;
67528;SDS011;54366;51.980;5.856;2024-02-28T07:59:26;19.10;;;15.30;;
67528;SDS011;54366;51.980;5.856;2024-02-28T08:01:52;18.20;;;14.85;;
67528;SDS011;54366;51.980;5.856;2024-02-28T08:04:18;16.33;;;14.48;;
67528;SDS011;54366;51.980;5.856;2024-02-28T08:06:45;16.85;;;14.48;;
67528;SDS011;54366;51.980;5.856;2024-02-28T08:09:11;19.88;;;16.10;;
67528;SDS011;54366;51.980;5.856;2024-02-28T08:11:38;20.45;;;16.73;;
67528;SDS011;54366;51.980;5.856;2024-02-28T08:14:04;21.73;;;17.63;;
67528;SDS011;54366;51.980;5.856;2024-02-28T08:16:30;22.13;;;17.73;;
67528;SDS011;54366;51.980;5.856;2024-02-28T08:18:56;21.33;;;16.75;;
67528;SDS011;54366;51.980;5.856;2024-02-28T08:21:24;25.70;;;19.17;;
67528;SDS011;54366;51.980;5.856;2024-02-28T08:23:50;23.45;;;16.92;;
67528;SDS011;54366;51.980;5.856;2024-02-28T08:26:17;21.05;;;16.70;;
67528;SDS011;54366;51.980;5.856;2024-02-28T08:28:43;28.40;;;20.85;;
67528;SDS011;54366;51.980;5.856;2024-02-28T08:31:09;23.58;;;18.10;;
67528;SDS011;54366;51.980;5.856;2024-02-28T08:33:36;21.92;;;17.08;;
67528;SDS011;54366;51.980;5.856;2024-02-28T08:36:02;23.10;;;16.65;;
67528;SDS011;54366;51.980;5.856;2024-02-28T08:38:29;24.45;;;17.50;;
67528;SDS011;54366;51.980;5.856;2024-02-28T08:40:55;24.80;;;19.02;;
67528;SDS011;54366;51.980;5.856;2024-02-28T08:43:21;31.70;;;22.60;;
67528;SDS011;54366;51.980;5.856;2024-02-28T08:45:48;30.30;;;20.60;;
67528;SDS011;54366;51.980;5.856;2024-02-28T08:48:17;34.17;;;23.48;;
67528;SDS011;54366;51.980;5.856;2024-02-28T08:50:43;27.75;;;20.63;;
67528;SDS011;54366;51.980;5.856;2024-02-28T08:53:09;28.15;;;19.85;;
67528;SDS011;54366;51.980;5.856;2024-02-28T08:55:36;25.83;;;18.15;;
67528;SDS011;54366;51.980;5.856;2024-02-28T08:58:02;26.55;;;19.23;;
67528;SDS011;54366;51.980;5.856;2024-02-28T09:00:28;27.05;;;20.20;;
67528;SDS011;54366;51.980;5.856;2024-02-28T09:02:55;23.45;;;17.88;;
67528;SDS011;54366;51.980;5.856;2024-02-28T09:05:21;22.13;;;16.98;;
67528;SDS011;54366;51.980;5.856;2024-02-28T09:07:48;26.35;;;20.00;;
67528;SDS011;54366;51.980;5.856;2024-02-28T09:10:17;29.73;;;21.73;;
67528;SDS011;54366;51.980;5.856;2024-02-28T09:12:52;26.42;;;19.30;;
67528;SDS011;54366;51.980;5.856;2024-02-28T09:15:19;27.45;;;20.25;;
67528;SDS011;54366;51.980;5.856;2024-02-28T09:17:45;28.65;;;21.98;;
67528;SDS011;54366;51.980;5.856;2024-02-28T09:20:12;25.42;;;18.63;;
67528;SDS011;54366;51.980;5.856;2024-02-28T09:22:38;23.48;;;18.13;;
67528;SDS011;54366;51.980;5.856;2024-02-28T09:25:05;24.85;;;19.42;;
67528;SDS011;54366;51.980;5.856;2024-02-28T09:27:34;24.48;;;19.00;;
67528;SDS011;54366;51.980;5.856;2024-02-28T09:30:01;28.15;;;21.40;;
67528;SDS011;54366;51.980;5.856;2024-02-28T09:32:28;29.23;;;22.20;;
67528;SDS011;54366;51.980;5.856;2024-02-28T09:34:54;27.23;;;20.23;;
67528;SDS011;54366;51.980;5.856;2024-02-28T09:37:21;24.83;;;18.35;;
67528;SDS011;54366;51.980;5.856;2024-02-28T09:39:48;24.98;;;19.25;;
67528;SDS011;54366;51.980;5.856;2024-02-28T09:42:14;26.63;;;19.40;;
67528;SDS011;54366;51.980;5.856;2024-02-28T09:44:40;23.73;;;18.83;;
67528;SDS011;54366;51.980;5.856;2024-02-28T09:47:08;24.85;;;19.65;;
67528;SDS011;54366;51.980;5.856;2024-02-28T09:49:37;27.25;;;20.85;;
67528;SDS011;54366;51.980;5.856;2024-02-28T09:52:03;24.42;;;18.83;;
67528;SDS011;54366;51.980;5.856;2024-02-28T09:54:30;24.15;;;19.17;;
67528;SDS011;54366;51.980;5.856;2024-02-28T09:56:56;30.02;;;22.25;;
67528;SDS011;54366;51.980;5.856;2024-02-28T09:59:23;26.67;;;21.02;;
67528;SDS011;54366;51.980;5.856;2024-02-28T10:01:55;29.65;;;22.08;;
67528;SDS011;54366;51.980;5.856;2024-02-28T10:04:23;26.42;;;20.85;;
67528;SDS011;54366;51.980;5.856;2024-02-28T10:06:55;24.60;;;19.65;;
67528;SDS011;54366;51.980;5.856;2024-02-28T10:09:22;24.20;;;18.60;;
67528;SDS011;54366;51.980;5.856;2024-02-28T10:11:48;26.30;;;20.55;;
67528;SDS011;54366;51.980;5.856;2024-02-28T10:14:17;23.60;;;18.52;;
67528;SDS011;54366;51.980;5.856;2024-02-28T10:16:45;25.00;;;19.25;;
67528;SDS011;54366;51.980;5.856;2024-02-28T10:19:11;24.45;;;19.52;;
67528;SDS011;54366;51.980;5.856;2024-02-28T10:21:38;24.92;;;20.23;;
67528;SDS011;54366;51.980;5.856;2024-02-28T10:24:05;29.88;;;22.88;;
67528;SDS011;54366;51.980;5.856;2024-02-28T10:26:31;32.35;;;24.55;;
67528;SDS011;54366;51.980;5.856;2024-02-28T10:29:04;28.30;;;21.35;;
67528;SDS011;54366;51.980;5.856;2024-02-28T10:31:32;31.00;;;23.30;;
67528;SDS011;54366;51.980;5.856;2024-02-28T10:33:59;27.67;;;21.50;;
67528;SDS011;54366;51.980;5.856;2024-02-28T10:36:27;29.95;;;24.20;;
67528;SDS011;54366;51.980;5.856;2024-02-28T10:38:57;25.73;;;20.80;;
67528;SDS011;54366;51.980;5.856;2024-02-28T10:41:26;24.33;;;20.02;;
67528;SDS011;54366;51.980;5.856;2024-02-28T10:43:54;24.02;;;19.60;;
67528;SDS011;54366;51.980;5.856;2024-02-28T10:46:20;25.13;;;20.48;;
67528;SDS011;54366;51.980;5.856;2024-02-28T10:48:49;23.20;;;18.95;;
67528;SDS011;54366;51.980;5.856;2024-02-28T10:51:17;27.55;;;20.77;;
67528;SDS011;54366;51.980;5.856;2024-02-28T10:53:49;24.65;;;19.65;;
67528;SDS011;54366;51.980;5.856;2024-02-28T10:56:19;24.38;;;19.83;;
67528;SDS011;54366;51.980;5.856;2024-02-28T10:58:55;23.02;;;19.73;;
67528;SDS011;54366;51.980;5.856;2024-02-28T11:01:25;27.65;;;21.80;;
67528;SDS011;54366;51.980;5.856;2024-02-28T11:03:52;29.83;;;23.58;;
67528;SDS011;54366;51.980;5.856;2024-02-28T11:06:20;30.35;;;23.50;;
67528;SDS011;54366;51.980;5.856;2024-02-28T11:08:48;26.85;;;22.60;;
67528;SDS011;54366;51.980;5.856;2024-02-28T11:11:18;27.52;;;21.98;;
67528;SDS011;54366;51.980;5.856;2024-02-28T11:13:55;31.55;;;25.27;;
67528;SDS011;54366;51.980;5.856;2024-02-28T11:16:41;26.13;;;21.48;;
67528;SDS011;54366;51.980;5.856;2024-02-28T11:19:20;27.83;;;22.30;;
67528;SDS011;54366;51.980;5.856;2024-02-28T11:21:53;28.27;;;22.27;;
67528;SDS011;54366;51.980;5.856;2024-02-28T11:24:24;25.02;;;20.27;;
67528;SDS011;54366;51.980;5.856;2024-02-28T11:26:54;26.85;;;21.55;;
67528;SDS011;54366;51.980;5.856;2024-02-28T11:29:24;29.45;;;24.35;;
67528;SDS011;54366;51.980;5.856;2024-02-28T11:31:54;26.90;;;22.08;;
67528;SDS011;54366;51.980;5.856;2024-02-28T11:34:21;28.80;;;21.95;;
67528;SDS011;54366;51.980;5.856;2024-02-28T11:36:48;27.42;;;22.25;;
67528;SDS011;54366;51.980;5.856;2024-02-28T11:39:15;25.58;;;20.60;;
67528;SDS011;54366;51.980;5.856;2024-02-28T11:41:46;29.05;;;23.45;;
67528;SDS011;54366;51.980;5.856;2024-02-28T11:44:13;35.13;;;27.38;;
67528;SDS011;54366;51.980;5.856;2024-02-28T11:46:44;27.13;;;21.77;;
67528;SDS011;54366;51.980;5.856;2024-02-28T11:49:15;23.95;;;19.63;;
67528;SDS011;54366;51.980;5.856;2024-02-28T11:51:42;25.13;;;20.33;;
67528;SDS011;54366;51.980;5.856;2024-02-28T11:54:09;27.48;;;21.75;;
67528;SDS011;54366;51.980;5.856;2024-02-28T11:56:39;31.52;;;25.45;;
67528;SDS011;54366;51.980;5.856;2024-02-28T11:59:06;29.00;;;24.58;;
67528;SDS011;54366;51.980;5.856;2024-02-28T12:01:34;26.98;;;23.00;;
67528;SDS011;54366;51.980;5.856;2024-02-28T12:04:09;27.10;;;22.45;;
67528;SDS011;54366;51.980;5.856;2024-02-28T12:06:36;25.45;;;20.60;;
67528;SDS011;54366;51.980;5.856;2024-02-28T12:09:03;24.17;;;19.70;;
67528;SDS011;54366;51.980;5.856;2024-02-28T12:11:30;26.52;;;22.48;;
67528;SDS011;54366;51.980;5.856;2024-02-28T12:13:57;32.72;;;27.70;;
67528;SDS011;54366;51.980;5.856;2024-02-28T12:16:25;36.85;;;29.50;;
67528;SDS011;54366;51.980;5.856;2024-02-28T12:18:53;29.65;;;23.77;;
67528;SDS011;54366;51.980;5.856;2024-02-28T12:21:19;29.23;;;23.42;;
67528;SDS011;54366;51.980;5.856;2024-02-28T12:23:46;26.15;;;22.13;;
67528;SDS011;54366;51.980;5.856;2024-02-28T12:26:18;25.75;;;21.33;;
67528;SDS011;54366;51.980;5.856;2024-02-28T12:28:45;24.58;;;20.85;;
67528;SDS011;54366;51.980;5.856;2024-02-28T12:31:12;27.67;;;23.45;;
67528;SDS011;54366;51.980;5.856;2024-02-28T12:33:39;27.65;;;23.17;;
67528;SDS011;54366;51.980;5.856;2024-02-28T12:36:05;20.42;;;17.73;;
67528;SDS011;54366;51.980;5.856;2024-02-28T12:38:32;20.25;;;17.95;;
67528;SDS011;54366;51.980;5.856;2024-02-28T12:40:58;23.13;;;18.67;;
67528;SDS011;54366;51.980;5.856;2024-02-28T12:43:24;20.92;;;18.13;;
67528;SDS011;54366;51.980;5.856;2024-02-28T12:45:51;27.27;;;22.45;;
67528;SDS011;54366;51.980;5.856;2024-02-28T12:48:17;25.98;;;19.92;;
67528;SDS011;54366;51.980;5.856;2024-02-28T12:50:43;24.60;;;20.92;;
67528;SDS011;54366;51.980;5.856;2024-02-28T12:53:10;27.50;;;22.40;;
67528;SDS011;54366;51.980;5.856;2024-02-28T12:55:36;22.63;;;19.33;;
67528;SDS011;54366;51.980;5.856;2024-02-28T12:58:02;25.92;;;21.20;;
67528;SDS011;54366;51.980;5.856;2024-02-28T13:00:31;24.40;;;20.13;;
67528;SDS011;54366;51.980;5.856;2024-02-28T13:02:58;26.92;;;22.95;;
67528;SDS011;54366;51.980;5.856;2024-02-28T13:05:24;21.83;;;18.98;;
67528;SDS011;54366;51.980;5.856;2024-02-28T13:07:51;23.30;;;19.08;;
67528;SDS011;54366;51.980;5.856;2024-02-28T13:10:18;22.67;;;19.23;;
67528;SDS011;54366;51.980;5.856;2024-02-28T13:12:44;21.27;;;18.25;;
67528;SDS011;54366;51.980;5.856;2024-02-28T13:15:11;29.27;;;23.52;;
67528;SDS011;54366;51.980;5.856;2024-02-28T13:17:37;30.58;;;23.45;;
67528;SDS011;54366;51.980;5.856;2024-02-28T13:20:03;27.75;;;21.92;;
67528;SDS011;54366;51.980;5.856;2024-02-28T13:22:30;29.05;;;22.85;;
67528;SDS011;54366;51.980;5.856;2024-02-28T13:24:56;26.77;;;21.88;;
67528;SDS011;54366;51.980;5.856;2024-02-28T13:27:23;28.50;;;24.27;;
67528;SDS011;54366;51.980;5.856;2024-02-28T13:29:49;27.45;;;21.77;;
67528;SDS011;54366;51.980;5.856;2024-02-28T13:32:15;26.85;;;21.92;;
67528;SDS011;54366;51.980;5.856;2024-02-28T13:34:42;31.02;;;24.20;;
67528;SDS011;54366;51.980;5.856;2024-02-28T13:37:08;25.25;;;22.08;;
67528;SDS011;54366;51.980;5.856;2024-02-28T13:39:34;25.48;;;21.10;;
67528;SDS011;54366;51.980;5.856;2024-02-28T13:42:01;22.35;;;19.33;;
67528;SDS011;54366;51.980;5.856;2024-02-28T13:44:29;24.80;;;20.73;;
67528;SDS011;54366;51.980;5.856;2024-02-28T13:46:55;23.63;;;19.10;;
67528;SDS011;54366;51.980;5.856;2024-02-28T13:49:21;20.67;;;17.85;;
67528;SDS011;54366;51.980;5.856;2024-02-28T13:51:47;17.00;;;15.15;;
67528;SDS011;54366;51.980;5.856;2024-02-28T13:54:15;23.08;;;19.30;;
67528;SDS011;54366;51.980;5.856;2024-02-28T13:56:41;23.13;;;20.13;;
67528;SDS011;54366;51.980;5.856;2024-02-28T13:59:07;22.65;;;18.40;;
67528;SDS011;54366;51.980;5.856;2024-02-28T14:01:34;21.13;;;18.92;;
67528;SDS011;54366;51.980;5.856;2024-02-28T14:04:00;19.70;;;17.60;;
67528;SDS011;54366;51.980;5.856;2024-02-28T14:06:26;21.08;;;18.75;;
67528;SDS011;54366;51.980;5.856;2024-02-28T14:08:53;18.70;;;16.70;;
67528;SDS011;54366;51.980;5.856;2024-02-28T14:11:19;20.70;;;17.88;;
67528;SDS011;54366;51.980;5.856;2024-02-28T14:13:46;18.02;;;16.10;;
67528;SDS011;54366;51.980;5.856;2024-02-28T14:16:12;19.70;;;17.25;;
67528;SDS011;54366;51.980;5.856;2024-02-28T14:18:39;20.50;;;18.00;;
67528;SDS011;54366;51.980;5.856;2024-02-28T14:21:05;22.98;;;19.85;;
67528;SDS011;54366;51.980;5.856;2024-02-28T14:23:31;20.38;;;18.08;;